Pocono Lake, Pennsylvania
Current Conditions -  °F | °C
As of 7:53 PM on Tuesday 21 Oct 2014 (Local Time) from KMPO Reporting Station
Overcast Overcast  
Wind Chill: 10°   Ceiling: 3600
Heat Index: 10°   Visibility: 10mi
Dew Point:   Wind: 5mph
Humidity: 89%   Direction: 50°NE
Pressure: 29.9"   Gusts: NA
Location:  41.09°N, 75.58°W
Report Text: KMPO 212353Z AUTO 05004KT 10SM BKN036 OVC049 10/08 A2990 RMK AO2 RAB13E24 SLP130 6//// T01000083 10128 20100 53019 TSNO PNO $
Loading
Personal Weather Stations






























Interactive Weather Map New forecast layout! Learn more

10-Day Weather Forecast

Advertisements
Track Severe Weather on mobile